SEGOL ESSB-ESSA
Flight info
| Callsign | SEGOL |
|---|---|
| Flight time | 0h 3m |
| Altitude | 1200 |
| Route | VFR STOCKHOLM CITY |
| Aircraft | PA24/L-SDE3FGHIRWY/LB1 |
Departure
| Time | 2026-05-07 15:42 |
|---|---|
| Airport | Stockholm-Bromma Airport (ESSB) |
Arrival
| Time | 2026-05-07 15:45 |
|---|---|
| Airport | Stockholm-Arlanda Airport (ESSA) |
| Time | Latitude | Longitude | Altitude | Speed | Heading |
|---|---|---|---|---|---|
| 2026-05-07 15:42 | 59.63761 | 18.12468 | 1395 ft | 127 kts | 297° |
| 2026-05-07 15:42 | 59.64238 | 18.11053 | 1392 ft | 124 kts | 302° |
| 2026-05-07 15:42 | 59.64740 | 18.09663 | 1391 ft | 124 kts | 302° |
| 2026-05-07 15:42 | 59.65249 | 18.08282 | 1381 ft | 127 kts | 301° |
| 2026-05-07 15:43 | 59.65613 | 18.06757 | 1407 ft | 117 kts | 286° |
| 2026-05-07 15:43 | 59.65827 | 18.05296 | 1372 ft | 105 kts | 276° |
| 2026-05-07 15:43 | 59.65963 | 18.03910 | 1331 ft | 102 kts | 276° |
| 2026-05-07 15:43 | 59.66083 | 18.02508 | 1209 ft | 104 kts | 274° |
| 2026-05-07 15:44 | 59.66147 | 18.01082 | 1118 ft | 101 kts | 271° |
| 2026-05-07 15:44 | 59.66148 | 17.99709 | 1023 ft | 103 kts | 262° |
| 2026-05-07 15:44 | 59.66041 | 17.98297 | 835 ft | 101 kts | 258° |
| 2026-05-07 15:44 | 59.65892 | 17.97090 | 642 ft | 82 kts | 244° |
| 2026-05-07 15:45 | 59.65549 | 17.96200 | 480 ft | 81 kts | 210° |
| 2026-05-07 15:45 | 59.65008 | 17.95940 | 223 ft | 79 kts | 194° |
| 2026-05-07 15:45 | 59.64538 | 17.95767 | 138 ft | 58 kts | 195° |
| 2026-05-07 15:45 | 59.64233 | 17.95652 | 139 ft | 34 kts | 189° |
| 2026-05-07 15:46 | 59.64058 | 17.95553 | 139 ft | 4 kts | 339° |
| 2026-05-07 15:46 | 59.64149 | 17.95517 | 135 ft | 20 kts | 345° |
| 2026-05-07 15:46 | 59.64252 | 17.95440 | 133 ft | 12 kts | 341° |
| 2026-05-07 15:47 | 59.64331 | 17.95386 | 133 ft | 13 kts | 339° |
| 2026-05-07 15:47 | 59.64392 | 17.95344 | 132 ft | 5 kts | 340° |
| 2026-05-07 15:47 | 59.64425 | 17.95328 | 132 ft | 10 kts | 348° |
| 2026-05-07 15:47 | 59.64503 | 17.95336 | 132 ft | 8 kts | 347° |
| 2026-05-07 15:48 | 59.64544 | 17.95225 | 132 ft | 16 kts | 255° |
| 2026-05-07 15:48 | 59.64486 | 17.95029 | 132 ft | 14 kts | 233° |
| 2026-05-07 15:48 | 59.64441 | 17.94892 | 132 ft | 10 kts | 237° |
| 2026-05-07 15:48 | 59.64391 | 17.94737 | 132 ft | 21 kts | 236° |
| 2026-05-07 15:49 | 59.64291 | 17.94423 | 132 ft | 28 kts | 238° |
| 2026-05-07 15:49 | 59.64212 | 17.94174 | 132 ft | 16 kts | 238° |
| 2026-05-07 15:49 | 59.64164 | 17.94023 | 132 ft | 15 kts | 237° |
| 2026-05-07 15:49 | 59.64093 | 17.93811 | 132 ft | 21 kts | 237° |
| 2026-05-07 15:50 | 59.64012 | 17.93545 | 132 ft | 23 kts | 240° |
| 2026-05-07 15:50 | 59.63995 | 17.93297 | 132 ft | 17 kts | 287° |
| 2026-05-07 15:50 | 59.64045 | 17.93091 | 132 ft | 15 kts | 297° |
| 2026-05-07 15:50 | 59.64093 | 17.92920 | 132 ft | 14 kts | 296° |
| 2026-05-07 15:51 | 59.64159 | 17.92652 | 132 ft | 27 kts | 296° |
| 2026-05-07 15:51 | 59.64248 | 17.92305 | 132 ft | 21 kts | 296° |
| 2026-05-07 15:51 | 59.64287 | 17.92145 | 132 ft | 8 kts | 284° |
| 2026-05-07 15:51 | 59.64247 | 17.92037 | 132 ft | 14 kts | 187° |
| 2026-05-07 15:52 | 59.64148 | 17.92010 | 132 ft | 20 kts | 181° |
| 2026-05-07 15:52 | 59.64042 | 17.91991 | 132 ft | 13 kts | 191° |
| 2026-05-07 15:52 | 59.63946 | 17.91958 | 132 ft | 15 kts | 191° |
| 2026-05-07 15:52 | 59.63877 | 17.91932 | 132 ft | 9 kts | 189° |
| 2026-05-07 15:53 | 59.63795 | 17.91906 | 132 ft | 1 kts | 189° |
| 2026-05-07 15:53 | 59.63770 | 17.91893 | 132 ft | 4 kts | 195° |
| 2026-05-07 15:53 | 59.63754 | 17.91843 | 132 ft | 3 kts | 249° |
| 2026-05-07 15:53 | 59.63752 | 17.91834 | 132 ft | 0 kts | 247° |